createdAt,value
2022-10-17T00:01:27.911Z,11.88
2022-10-17T00:07:41.916Z,11.80
2022-10-17T00:10:48.944Z,11.80
2022-10-17T00:14:01.918Z,11.80
2022-10-17T00:17:11.871Z,11.80
2022-10-17T00:20:18.878Z,11.82
2022-10-17T00:23:25.887Z,11.90
2022-10-17T00:26:32.889Z,11.90
2022-10-17T00:29:42.884Z,11.90
2022-10-17T00:32:49.935Z,11.90
2022-10-17T00:35:56.904Z,11.86
2022-10-17T00:39:03.940Z,11.82
2022-10-17T00:42:13.945Z,11.84
2022-10-17T00:45:20.939Z,11.80
2022-10-17T00:48:28.022Z,11.76
2022-10-17T00:51:40.995Z,11.60
2022-10-17T00:54:50.922Z,11.50
2022-10-17T00:57:57.979Z,11.50
2022-10-17T01:01:05.050Z,11.60
2022-10-17T01:04:15.052Z,11.50
2022-10-17T01:07:21.993Z,11.50
2022-10-17T01:10:29.003Z,11.48
2022-10-17T01:13:36.073Z,11.40
2022-10-17T01:16:46.013Z,11.30
2022-10-17T01:19:53.058Z,11.30
2022-10-17T01:23:03.195Z,11.30
2022-10-17T01:26:10.055Z,11.24
2022-10-17T01:29:17.102Z,11.20
2022-10-17T01:32:24.049Z,11.20
2022-10-17T01:35:31.113Z,11.14
2022-10-17T01:38:38.070Z,11.10
2022-10-17T01:41:48.077Z,11.00
2022-10-17T01:44:55.106Z,11.00
2022-10-17T01:48:02.084Z,11.00
2022-10-17T01:51:09.149Z,11.00
2022-10-17T01:54:16.107Z,11.00
2022-10-17T01:57:23.140Z,11.00
2022-10-17T02:00:34.121Z,11.00
2022-10-17T02:03:41.151Z,11.00
2022-10-17T02:06:48.212Z,11.10
2022-10-17T02:09:55.175Z,11.10
2022-10-17T02:13:05.165Z,11.10
2022-10-17T02:16:12.144Z,11.10
2022-10-17T02:19:22.208Z,11.10
2022-10-17T02:22:29.222Z,11.10
2022-10-17T02:25:36.219Z,11.08
2022-10-17T02:28:43.229Z,11.00
2022-10-17T02:31:50.191Z,10.92
2022-10-17T02:34:57.239Z,10.90
2022-10-17T02:38:04.234Z,10.90
2022-10-17T02:41:11.231Z,10.82
2022-10-17T02:44:21.198Z,10.80
2022-10-17T02:47:34.281Z,10.70
2022-10-17T02:50:58.317Z,10.70
2022-10-17T02:54:05.273Z,10.70
2022-10-17T02:57:16.293Z,10.70
2022-10-17T03:00:26.326Z,10.78
2022-10-17T03:03:36.309Z,10.70
2022-10-17T03:06:43.304Z,10.70
2022-10-17T03:09:58.300Z,10.70
2022-10-17T03:13:05.318Z,10.68
2022-10-17T03:16:12.354Z,10.62
2022-10-17T03:19:19.390Z,10.60
2022-10-17T03:22:26.625Z,10.60
2022-10-17T03:25:38.362Z,10.60
2022-10-17T03:28:50.725Z,10.62
2022-10-17T03:32:01.353Z,10.60
2022-10-17T03:35:10.195Z,10.58
2022-10-17T03:38:21.298Z,10.50
2022-10-17T03:41:28.409Z,10.50
2022-10-17T03:44:38.348Z,10.50
2022-10-17T03:47:45.426Z,10.50
2022-10-17T03:50:52.392Z,10.50
2022-10-17T03:54:02.425Z,10.50
2022-10-17T03:57:09.421Z,10.40
2022-10-17T04:00:16.414Z,10.34
2022-10-17T04:03:23.481Z,10.34
2022-10-17T04:06:33.497Z,10.40
2022-10-17T04:09:40.416Z,10.40
2022-10-17T04:12:47.603Z,10.38
2022-10-17T04:15:57.469Z,10.38
2022-10-17T04:19:04.464Z,10.30
2022-10-17T04:22:11.656Z,10.30
2022-10-17T04:25:21.462Z,10.20
2022-10-17T04:28:34.695Z,10.14
2022-10-17T04:31:42.502Z,10.18
2022-10-17T04:34:52.700Z,10.20
2022-10-17T04:38:05.547Z,10.12
2022-10-17T04:41:15.526Z,10.18
2022-10-17T04:44:22.513Z,10.10
2022-10-17T04:47:29.600Z,10.20
2022-10-17T04:50:39.555Z,10.20
2022-10-17T04:53:49.591Z,10.20
2022-10-17T04:56:59.566Z,10.20
2022-10-17T05:00:06.658Z,10.18
2022-10-17T05:03:19.531Z,10.10
2022-10-17T05:06:30.572Z,10.08
2022-10-17T05:09:37.723Z,10.10
2022-10-17T05:12:44.615Z,10.08
2022-10-17T05:15:54.646Z,10.00
2022-10-17T05:19:01.621Z,9.98
2022-10-17T05:22:08.612Z,9.94
2022-10-17T05:25:15.628Z,10.00
2022-10-17T05:28:22.697Z,10.10
2022-10-17T05:31:29.667Z,10.10
2022-10-17T05:34:39.676Z,10.10
2022-10-17T05:37:49.713Z,10.14
2022-10-17T05:40:56.797Z,10.12
2022-10-17T05:44:06.697Z,10.14
2022-10-17T05:47:13.696Z,10.20
2022-10-17T05:50:20.707Z,10.22
2022-10-17T05:53:27.709Z,10.30
2022-10-17T05:56:37.738Z,10.36
2022-10-17T05:59:44.719Z,10.40
2022-10-17T06:02:54.758Z,10.42
2022-10-17T06:06:04.825Z,10.50
2022-10-17T06:09:17.760Z,10.60
2022-10-17T06:12:27.944Z,10.70
2022-10-17T06:15:35.795Z,10.80
2022-10-17T06:18:42.862Z,10.90
2022-10-17T06:21:50.788Z,11.10
2022-10-17T06:24:57.786Z,11.26
2022-10-17T06:28:04.797Z,11.50
2022-10-17T06:31:14.791Z,11.70
2022-10-17T06:34:24.797Z,11.90
2022-10-17T06:37:36.543Z,11.98
2022-10-17T06:40:44.821Z,12.10
2022-10-17T06:43:54.890Z,12.20
2022-10-17T06:47:04.850Z,12.20
2022-10-17T06:50:11.867Z,12.30
2022-10-17T06:53:21.854Z,12.40
2022-10-17T06:56:28.900Z,12.40
2022-10-17T06:59:38.914Z,12.60
2022-10-17T07:02:45.969Z,12.68
2022-10-17T07:05:56.875Z,12.70
2022-10-17T07:09:06.935Z,12.88
2022-10-17T07:12:13.883Z,12.94
2022-10-17T07:15:20.933Z,12.90
2022-10-17T07:18:30.913Z,13.00
2022-10-17T07:21:39.205Z,13.10
2022-10-17T07:24:46.996Z,13.28
2022-10-17T07:27:54.017Z,13.40
2022-10-17T07:31:03.975Z,13.60
2022-10-17T07:34:10.933Z,13.80
2022-10-17T07:37:17.935Z,13.82
2022-10-17T07:40:25.014Z,14.00
2022-10-17T07:43:34.973Z,14.10
2022-10-17T07:46:42.015Z,14.30
2022-10-17T07:49:49.010Z,14.40
2022-10-17T07:52:59.078Z,14.50
2022-10-17T07:56:08.969Z,14.60
2022-10-17T07:59:16.019Z,14.80
2022-10-17T08:02:23.008Z,14.90
2022-10-17T08:05:30.024Z,14.90
2022-10-17T08:08:37.041Z,15.00
2022-10-17T08:11:47.073Z,15.00
2022-10-17T08:14:57.029Z,15.06
2022-10-17T08:18:07.280Z,15.20
2022-10-17T08:21:15.104Z,15.32
2022-10-17T08:24:22.091Z,15.40
2022-10-17T08:27:32.124Z,15.48
2022-10-17T08:30:39.129Z,15.60
2022-10-17T08:33:46.137Z,15.70
2022-10-17T08:36:53.285Z,15.80
2022-10-17T08:40:05.122Z,15.80
2022-10-17T08:43:12.199Z,15.88
2022-10-17T08:46:22.179Z,16.00
2022-10-17T08:49:29.099Z,16.10
2022-10-17T08:52:36.184Z,16.20
2022-10-17T08:55:45.507Z,16.30
2022-10-17T08:58:53.172Z,16.36
2022-10-17T09:02:06.138Z,16.50
2022-10-17T09:05:16.262Z,16.50
2022-10-17T09:08:26.233Z,16.60
2022-10-17T09:11:33.221Z,16.70
2022-10-17T09:14:40.212Z,16.80
2022-10-17T09:17:47.233Z,16.94
2022-10-17T09:20:57.338Z,17.00
2022-10-17T09:24:15.925Z,17.06
2022-10-17T09:27:23.216Z,17.10
2022-10-17T09:30:44.804Z,17.10
2022-10-17T09:33:56.258Z,17.20
2022-10-17T09:37:03.366Z,17.30
2022-10-17T09:40:15.329Z,17.34
2022-10-17T09:43:25.284Z,17.40
2022-10-17T09:46:37.291Z,17.42
2022-10-17T09:49:44.267Z,17.50
2022-10-17T09:53:00.306Z,17.60
2022-10-17T09:56:10.333Z,17.70
2022-10-17T09:59:20.406Z,17.70
2022-10-17T10:02:28.614Z,17.70
2022-10-17T10:05:36.372Z,17.70
2022-10-17T10:08:43.337Z,17.76
2022-10-17T10:11:50.398Z,17.80
2022-10-17T10:15:06.376Z,17.80
2022-10-17T10:18:19.377Z,17.82
2022-10-17T10:21:29.398Z,17.90
2022-10-17T10:24:36.434Z,18.00
2022-10-17T10:27:48.484Z,18.00
2022-10-17T10:30:58.408Z,18.10
2022-10-17T10:34:05.461Z,18.20
2022-10-17T10:37:17.009Z,18.30
2022-10-17T10:40:24.494Z,18.30
2022-10-17T10:43:34.442Z,18.30
2022-10-17T10:46:44.446Z,18.30
2022-10-17T10:49:51.472Z,18.40
2022-10-17T10:53:00.406Z,18.40
2022-10-17T10:56:07.497Z,18.46
2022-10-17T10:59:14.484Z,18.50
2022-10-17T11:02:21.491Z,18.60
2022-10-17T11:05:31.461Z,18.58
2022-10-17T11:08:38.473Z,18.64
2022-10-17T11:11:45.502Z,18.60
2022-10-17T11:14:52.530Z,18.60
2022-10-17T11:17:59.600Z,18.52
2022-10-17T11:21:13.585Z,18.60
2022-10-17T11:24:23.577Z,18.70
2022-10-17T11:27:34.581Z,18.70
2022-10-17T11:30:41.660Z,18.80
2022-10-17T11:33:48.504Z,18.80
2022-10-17T11:36:58.619Z,18.80
2022-10-17T11:40:09.653Z,18.90
2022-10-17T11:43:19.697Z,18.90
2022-10-17T11:46:29.664Z,19.00
2022-10-17T11:49:39.898Z,19.00
2022-10-17T11:52:57.257Z,19.00
2022-10-17T11:56:07.619Z,19.00
2022-10-17T11:59:17.595Z,19.00
2022-10-17T12:02:25.665Z,19.00
2022-10-17T12:05:49.905Z,19.00
2022-10-17T12:08:56.824Z,19.00
2022-10-17T12:12:03.755Z,19.00
2022-10-17T12:15:13.834Z,19.10
2022-10-17T12:18:20.866Z,19.10
2022-10-17T12:21:31.455Z,19.10
2022-10-17T12:24:42.835Z,19.10
2022-10-17T12:27:52.901Z,19.10
2022-10-17T12:31:02.846Z,19.10
2022-10-17T12:34:09.835Z,19.06
2022-10-17T12:37:17.882Z,19.00
2022-10-17T12:40:24.912Z,18.92
2022-10-17T12:43:31.974Z,18.90
2022-10-17T12:46:42.226Z,18.92
2022-10-17T12:49:53.129Z,19.00
2022-10-17T12:53:01.910Z,19.00
2022-10-17T12:56:11.917Z,19.00
2022-10-17T12:59:21.929Z,19.00
2022-10-17T13:02:28.932Z,19.00
2022-10-17T13:05:39.940Z,19.00
2022-10-17T13:08:54.547Z,19.00
2022-10-17T13:12:03.942Z,19.00
2022-10-17T13:15:13.965Z,19.00
2022-10-17T13:18:24.979Z,19.00
2022-10-17T13:21:36.091Z,19.00
2022-10-17T13:24:47.039Z,19.00
2022-10-17T13:27:57.002Z,18.90
2022-10-17T13:31:07.026Z,18.80
2022-10-17T13:34:17.093Z,18.70
2022-10-17T13:37:27.239Z,18.70
2022-10-17T13:40:49.098Z,18.70
2022-10-17T13:43:57.084Z,18.66
2022-10-17T13:47:06.079Z,18.60
2022-10-17T13:50:39.406Z,18.60
2022-10-17T13:53:46.181Z,18.60
2022-10-17T14:00:03.127Z,18.60
2022-10-17T14:03:14.716Z,18.60
2022-10-17T14:06:22.245Z,18.50
2022-10-17T14:09:30.089Z,18.50
2022-10-17T14:12:40.118Z,18.50
2022-10-17T14:15:47.165Z,18.50
2022-10-17T14:18:57.118Z,18.50
2022-10-17T14:22:04.110Z,18.50
2022-10-17T14:25:11.146Z,18.50
2022-10-17T14:28:18.131Z,18.42
2022-10-17T14:31:25.299Z,18.42
2022-10-17T14:34:35.175Z,18.40
2022-10-17T14:37:45.155Z,18.40
2022-10-17T14:40:52.157Z,18.40
2022-10-17T14:43:59.317Z,18.34
2022-10-17T14:47:30.786Z,18.30
2022-10-17T14:50:37.249Z,18.30
2022-10-17T14:53:44.196Z,18.30
2022-10-17T14:56:54.204Z,18.20
2022-10-17T15:00:01.264Z,18.20
2022-10-17T15:03:11.356Z,18.10
2022-10-17T15:06:19.218Z,18.10
2022-10-17T15:09:26.256Z,18.08
2022-10-17T15:12:38.291Z,18.00
2022-10-17T15:15:45.266Z,18.00
2022-10-17T15:18:52.248Z,17.90
2022-10-17T15:22:02.282Z,17.90
2022-10-17T15:25:12.368Z,17.80
2022-10-17T15:28:22.354Z,17.80
2022-10-17T15:31:32.368Z,17.70
2022-10-17T15:34:42.289Z,17.68
2022-10-17T15:37:49.338Z,17.60
2022-10-17T15:41:02.365Z,17.60
2022-10-17T15:44:12.410Z,17.50
2022-10-17T15:47:26.510Z,17.50
2022-10-17T15:50:34.328Z,17.46
2022-10-17T15:53:44.393Z,17.40
2022-10-17T15:56:54.352Z,17.40
2022-10-17T16:00:01.426Z,17.34
2022-10-17T16:03:12.348Z,17.30
2022-10-17T16:06:19.396Z,17.20
2022-10-17T16:09:26.391Z,17.20
2022-10-17T16:12:36.446Z,17.20
2022-10-17T16:15:46.461Z,17.10
2022-10-17T16:18:56.446Z,17.10
2022-10-17T16:22:04.732Z,17.00
2022-10-17T16:25:15.410Z,17.00
2022-10-17T16:28:22.491Z,16.90
2022-10-17T16:31:32.464Z,16.90
2022-10-17T16:34:39.484Z,16.80
2022-10-17T16:37:49.412Z,16.80
2022-10-17T16:40:56.484Z,16.74
2022-10-17T16:44:03.492Z,16.70
2022-10-17T16:47:10.517Z,16.70
2022-10-17T16:50:20.492Z,16.60
2022-10-17T16:53:27.499Z,16.60
2022-10-17T17:00:10.508Z,16.50
2022-10-17T17:03:20.554Z,16.50
2022-10-17T17:06:31.579Z,16.50
2022-10-17T17:13:38.559Z,16.40
2022-10-17T17:16:48.525Z,16.40
2022-10-17T17:19:58.535Z,16.40
2022-10-17T17:23:09.889Z,16.34
2022-10-17T17:26:18.579Z,16.30
2022-10-17T17:29:28.536Z,16.30
2022-10-17T17:32:35.727Z,16.20
2022-10-17T17:35:43.589Z,16.20
2022-10-17T17:38:53.566Z,16.20
2022-10-17T17:42:00.598Z,16.10
2022-10-17T17:45:07.544Z,16.08
2022-10-17T17:48:14.613Z,16.00
2022-10-17T17:51:25.581Z,15.92
2022-10-17T17:54:40.011Z,15.90
2022-10-17T17:57:51.585Z,15.90
2022-10-17T18:00:58.710Z,15.80
2022-10-17T18:04:08.859Z,15.80
2022-10-17T18:07:16.614Z,15.70
2022-10-17T18:10:23.659Z,15.60
2022-10-17T18:13:30.692Z,15.56
2022-10-17T18:16:37.676Z,15.50
2022-10-17T18:19:44.661Z,15.40
2022-10-17T18:22:51.780Z,15.40
2022-10-17T18:26:02.011Z,15.40
2022-10-17T18:29:09.698Z,15.30
2022-10-17T18:32:16.705Z,15.30
2022-10-17T18:35:23.717Z,15.30
2022-10-17T18:38:30.847Z,15.30
2022-10-17T18:41:38.729Z,15.30
2022-10-17T18:44:45.769Z,15.20
2022-10-17T18:47:52.789Z,15.20
2022-10-17T18:50:59.727Z,15.20
2022-10-17T18:54:06.787Z,15.14
2022-10-17T18:57:13.798Z,15.10
2022-10-17T19:00:20.755Z,15.14
2022-10-17T19:03:30.734Z,15.10
2022-10-17T19:06:37.968Z,15.10
2022-10-17T19:09:47.884Z,15.10
2022-10-17T19:12:57.829Z,15.00
2022-10-17T19:16:13.823Z,15.00
2022-10-17T19:19:23.898Z,14.90
2022-10-17T19:22:30.872Z,14.90
2022-10-17T19:25:40.840Z,14.90
2022-10-17T19:28:50.934Z,14.80
2022-10-17T19:32:00.857Z,14.70
2022-10-17T19:35:10.888Z,14.70
2022-10-17T19:38:17.887Z,14.70
2022-10-17T19:41:24.958Z,14.68
2022-10-17T19:44:34.940Z,14.66
2022-10-17T19:47:44.928Z,14.64
2022-10-17T19:50:51.885Z,14.50
2022-10-17T19:53:58.930Z,14.50
2022-10-17T19:57:09.546Z,14.46
2022-10-17T20:00:17.919Z,14.40
2022-10-17T20:03:27.932Z,14.40
2022-10-17T20:06:37.967Z,14.40
2022-10-17T20:09:44.971Z,14.40
2022-10-17T20:12:54.995Z,14.40
2022-10-17T20:16:01.984Z,14.40
2022-10-17T20:19:09.422Z,14.40
2022-10-17T20:22:16.963Z,14.40
2022-10-17T20:25:24.018Z,14.30
2022-10-17T20:28:31.091Z,14.28
2022-10-17T20:31:41.030Z,14.20
2022-10-17T20:34:51.133Z,14.20
2022-10-17T20:38:01.032Z,14.20
2022-10-17T20:41:08.030Z,14.10
2022-10-17T20:44:15.062Z,14.00
2022-10-17T20:47:40.526Z,14.00
2022-10-17T20:50:52.011Z,13.90
2022-10-17T20:53:59.079Z,13.90
2022-10-17T20:57:06.116Z,13.92
2022-10-17T21:00:13.087Z,13.96
2022-10-17T21:03:20.252Z,13.90
2022-10-17T21:06:30.139Z,13.90
2022-10-17T21:09:37.101Z,13.90
2022-10-17T21:12:54.037Z,13.90
2022-10-17T21:16:02.107Z,13.90
2022-10-17T21:19:12.200Z,13.90
2022-10-17T21:22:19.127Z,13.90
2022-10-17T21:25:26.212Z,13.82
2022-10-17T21:28:36.193Z,13.80
2022-10-17T21:31:43.172Z,13.80
2022-10-17T21:34:50.152Z,13.70
2022-10-17T21:38:00.129Z,13.60
2022-10-17T21:41:07.101Z,13.50
2022-10-17T21:44:14.228Z,13.50
2022-10-17T21:47:23.218Z,13.40
2022-10-17T21:50:33.216Z,13.40
2022-10-17T21:53:43.205Z,13.40
2022-10-17T21:56:50.368Z,13.40
2022-10-17T22:00:00.210Z,13.38
2022-10-17T22:03:07.194Z,13.34
2022-10-17T22:09:44.265Z,13.30
2022-10-17T22:12:51.341Z,13.22
2022-10-17T22:16:01.274Z,13.20
2022-10-17T22:19:11.261Z,13.18
2022-10-17T22:22:21.290Z,13.10
2022-10-17T22:25:31.309Z,13.10
2022-10-17T22:28:38.355Z,13.10
2022-10-17T22:31:48.263Z,13.10
2022-10-17T22:34:55.303Z,13.10
2022-10-17T22:38:02.376Z,13.10
2022-10-17T22:41:09.398Z,13.10
2022-10-17T22:44:19.339Z,13.08
2022-10-17T22:47:29.574Z,13.00
2022-10-17T22:50:37.324Z,13.00
2022-10-17T22:53:44.310Z,12.90
2022-10-17T22:56:51.383Z,12.90
2022-10-17T22:59:58.387Z,12.90
2022-10-17T23:03:05.332Z,12.90
2022-10-17T23:06:12.389Z,12.80
2022-10-17T23:09:20.440Z,12.86
2022-10-17T23:12:27.536Z,12.80
2022-10-17T23:15:38.510Z,12.80
2022-10-17T23:18:51.432Z,12.80
2022-10-17T23:22:01.432Z,12.80
2022-10-17T23:25:08.436Z,12.80
2022-10-17T23:28:15.612Z,12.74
2022-10-17T23:31:22.457Z,12.70
2022-10-17T23:34:29.466Z,12.60
2022-10-17T23:37:36.419Z,12.54
2022-10-17T23:40:43.487Z,12.50
2022-10-17T23:43:54.555Z,12.40
2022-10-17T23:47:04.505Z,12.40
2022-10-17T23:50:14.696Z,12.30
2022-10-17T23:53:22.498Z,12.20
2022-10-17T23:56:32.525Z,12.22
2022-10-17T23:59:39.563Z,12.30
